Time;durP1;ratioP1;P1;durP2;ratioP2;P2;SDS_P1;SDS_P2;PMS_P1;PMS_P2;Temp;Humidity;BMP_temperature;BMP_pressure;BME280_temperature;BME280_humidity;BME280_pressure;Samples;Min_cycle;Max_cycle;Signal;HPM_P1;HPM_P2
2024/03/08 00:02:39;;;;;;;129.20;56.60;;;;;;;-3.16;79.54;100697.45;217275;1259;140781;-70
2024/03/08 00:07:44;;;;;;;120.30;54.00;;;;;;;-3.22;79.62;100693.98;217403;1263;140837;-71
2024/03/08 00:12:48;;;;;;;99.30;50.20;;;;;;;-3.26;79.68;100691.50;217194;1263;140481;-71
2024/03/08 00:17:53;;;;;;;102.40;54.00;;;;;;;-3.29;79.72;100684.66;217522;1259;140503;-70
2024/03/08 00:22:58;;;;;;;104.90;51.30;;;;;;;-3.31;79.87;100684.28;217194;1259;140626;-70
2024/03/08 00:28:04;;;;;;;108.90;53.60;;;;;;;-3.34;79.86;100681.41;218064;1259;141644;-72
2024/03/08 00:33:09;;;;;;;112.20;56.50;;;;;;;-3.40;80.08;100679.23;218712;1262;141692;-71
2024/03/08 00:38:13;;;;;;;99.80;54.80;;;;;;;-3.37;80.38;100679.25;217532;1259;140676;-70
2024/03/08 00:43:17;;;;;;;105.90;51.00;;;;;;;-3.37;80.32;100678.87;217446;1259;140449;-71
2024/03/08 00:48:21;;;;;;;102.40;50.00;;;;;;;-3.35;80.35;100676.45;218282;1262;142215;-70
2024/03/08 00:53:27;;;;;;;96.50;48.10;;;;;;;-3.35;80.24;100678.34;217333;1262;140519;-71
2024/03/08 00:58:31;;;;;;;93.00;49.30;;;;;;;-3.42;80.05;100671.05;217577;1259;141639;-70
2024/03/08 01:03:36;;;;;;;91.90;51.40;;;;;;;-3.49;80.23;100669.55;217104;1260;140391;-70
2024/03/08 01:08:42;;;;;;;115.20;55.50;;;;;;;-3.51;80.55;100667.97;217733;1261;140173;-68
2024/03/08 01:13:47;;;;;;;100.60;49.70;;;;;;;-3.53;80.52;100664.13;217477;1259;140565;-72
2024/03/08 01:18:52;;;;;;;119.20;57.00;;;;;;;-3.58;80.44;100659.89;217628;1260;141207;-69
2024/03/08 01:23:56;;;;;;;103.60;56.50;;;;;;;-3.62;80.56;100664.17;217509;1260;141197;-71
2024/03/08 01:29:05;;;;;;;114.60;57.80;;;;;;;-3.64;80.50;100661.87;217377;1263;140513;-69
2024/03/08 01:34:08;;;;;;;106.60;49.80;;;;;;;-3.65;80.81;100653.84;217025;1259;140488;-72
2024/03/08 01:39:13;;;;;;;100.20;52.50;;;;;;;-3.64;80.88;100652.02;217301;1259;140694;-75
2024/03/08 01:44:17;;;;;;;88.30;48.10;;;;;;;-3.64;80.68;100651.34;217052;1264;140677;-75
2024/03/08 01:49:25;;;;;;;87.30;45.60;;;;;;;-3.74;80.73;100649.11;217345;1263;141125;-70
2024/03/08 01:54:30;;;;;;;93.20;47.50;;;;;;;-3.80;80.58;100652.73;217109;1263;141000;-72
2024/03/08 01:59:34;;;;;;;96.00;47.20;;;;;;;-3.82;80.95;100645.77;216957;1264;140376;-72
2024/03/08 02:04:39;;;;;;;94.90;50.10;;;;;;;-3.82;81.12;100648.93;217487;1263;141107;-73
2024/03/08 02:09:43;;;;;;;99.10;51.70;;;;;;;-3.84;81.24;100643.50;217257;1259;140556;-72
2024/03/08 02:14:48;;;;;;;97.20;48.40;;;;;;;-3.90;81.13;100642.63;217564;1263;141101;-72
2024/03/08 02:19:52;;;;;;;92.70;45.80;;;;;;;-3.96;80.97;100643.09;216981;1259;141326;-72
2024/03/08 02:25:03;;;;;;;77.40;43.30;;;;;;;-3.99;81.22;100637.40;217466;1262;139935;-73
2024/03/08 02:30:08;;;;;;;94.10;44.50;;;;;;;-3.99;81.22;100636.91;217746;1262;140289;-73
2024/03/08 02:35:13;;;;;;;79.30;43.00;;;;;;;-4.02;81.16;100637.64;219062;1259;141356;-72
2024/03/08 02:40:17;;;;;;;85.80;43.80;;;;;;;-4.05;81.04;100636.15;217117;1264;141787;-70
2024/03/08 02:45:22;;;;;;;111.50;50.10;;;;;;;-4.09;81.05;100633.52;217023;1263;140436;-72
2024/03/08 02:50:26;;;;;;;118.20;53.10;;;;;;;-4.14;80.83;100635.12;217068;1265;140343;-73
2024/03/08 02:55:33;;;;;;;101.10;50.00;;;;;;;-4.18;81.15;100631.95;217063;1263;141966;-70
2024/03/08 03:00:38;;;;;;;101.50;53.00;;;;;;;-4.23;80.97;100629.17;216970;1260;140381;-72
2024/03/08 03:05:56;;;;;;;106.80;48.20;;;;;;;-4.27;81.21;100625.33;216918;1259;141480;-70
2024/03/08 03:11:07;;;;;;;101.30;53.20;;;;;;;-4.29;81.18;100621.35;217588;1263;140652;-70
2024/03/08 03:16:17;;;;;;;99.50;49.90;;;;;;;-4.31;81.33;100619.58;216782;1259;140572;-72
2024/03/08 03:21:22;;;;;;;86.60;45.30;;;;;;;-4.31;81.39;100617.36;217305;1263;140094;-71
2024/03/08 03:26:26;;;;;;;85.30;42.10;;;;;;;-4.34;81.35;100617.59;216967;1263;141800;-71
2024/03/08 03:31:31;;;;;;;75.60;42.30;;;;;;;-4.40;81.52;100618.01;217132;1260;140679;-71
2024/03/08 03:36:37;;;;;;;81.50;41.40;;;;;;;-4.45;81.52;100620.44;217046;1260;142534;-72
2024/03/08 03:41:45;;;;;;;93.60;43.90;;;;;;;-4.50;81.37;100619.60;217020;1263;140405;-71
2024/03/08 03:46:53;;;;;;;89.40;43.60;;;;;;;-4.53;81.59;100623.16;217803;1263;141118;-74
2024/03/08 03:51:57;;;;;;;;;;;;;;;-4.53;81.90;100620.70;217112;1263;141333;-73
2024/03/08 03:57:02;;;;;;;81.40;45.10;;;;;;;-4.53;81.99;100617.93;218045;1259;128024;-71
2024/03/08 04:02:07;;;;;;;98.70;48.50;;;;;;;-4.55;81.49;100617.08;217045;1263;141095;-70
2024/03/08 04:07:12;;;;;;;95.00;43.70;;;;;;;-4.56;81.83;100612.32;217221;1260;141416;-71
2024/03/08 04:12:17;;;;;;;87.70;45.10;;;;;;;-4.52;82.06;100609.07;217771;1259;140284;-71
2024/03/08 04:17:24;;;;;;;98.90;45.40;;;;;;;-4.52;82.00;100609.05;218312;1261;141101;-71
2024/03/08 04:22:28;;;;;;;94.60;47.40;;;;;;;-4.52;81.82;100609.59;218785;1260;141139;-70
2024/03/08 04:27:34;;;;;;;87.30;44.80;;;;;;;-4.57;81.69;100608.41;217657;1259;140412;-71
2024/03/08 04:32:38;;;;;;;91.90;45.30;;;;;;;-4.61;81.90;100607.48;219240;1260;140909;-70
2024/03/08 04:37:42;;;;;;;87.40;41.60;;;;;;;-4.62;81.69;100609.29;217911;1263;141100;-71
2024/03/08 04:42:46;;;;;;;96.10;50.60;;;;;;;-4.64;81.83;100603.09;217246;1260;141613;-70
2024/03/08 04:47:51;;;;;;;96.90;49.30;;;;;;;-4.66;81.88;100606.70;217487;1259;139991;-69
2024/03/08 04:52:55;;;;;;;91.30;44.10;;;;;;;-4.68;82.03;100602.48;217241;1263;140005;-71
2024/03/08 04:57:59;;;;;;;85.30;41.20;;;;;;;-4.64;82.33;100604.41;217286;1263;140125;-70
2024/03/08 05:03:04;;;;;;;89.40;43.00;;;;;;;-4.63;82.19;100603.14;217157;1263;141515;-70
2024/03/08 05:08:09;;;;;;;88.90;43.90;;;;;;;-4.68;82.08;100599.67;216978;1264;140867;-72
2024/03/08 05:13:13;;;;;;;82.40;40.80;;;;;;;-4.67;82.36;100601.38;217618;1261;140604;-70
2024/03/08 05:18:18;;;;;;;71.40;38.70;;;;;;;-4.65;82.29;100596.20;217184;1261;140491;-70
2024/03/08 05:23:22;;;;;;;82.00;44.30;;;;;;;-4.68;82.40;100597.14;216798;1263;140971;-72
2024/03/08 05:28:26;;;;;;;87.50;45.80;;;;;;;-4.70;82.21;100593.43;217107;1263;140939;-70
2024/03/08 05:33:30;;;;;;;90.20;45.80;;;;;;;-4.67;82.47;100591.00;216792;1261;383406;-71
2024/03/08 05:38:34;;;;;;;86.60;45.10;;;;;;;-4.62;82.45;100593.20;217752;1260;140271;-71
2024/03/08 05:43:40;;;;;;;88.50;43.00;;;;;;;-4.54;82.60;100593.55;217035;1260;141113;-70
2024/03/08 05:48:45;;;;;;;85.90;48.80;;;;;;;-4.47;82.84;100595.42;217308;1263;141456;-71
2024/03/08 05:53:53;;;;;;;77.30;40.20;;;;;;;-4.38;82.70;100592.03;216794;1263;140953;-70
2024/03/08 05:59:00;;;;;;;82.30;43.80;;;;;;;-4.32;82.41;100595.54;218126;1261;140714;-71
2024/03/08 06:04:04;;;;;;;;;;;;;;;-4.23;82.87;100597.77;218156;1263;141123;-70
2024/03/08 06:09:13;;;;;;;77.70;41.30;;;;;;;-4.11;83.02;100597.23;217319;1261;127662;-71
2024/03/08 06:14:18;;;;;;;85.20;47.70;;;;;;;-3.96;83.36;100599.83;218622;1261;142896;-70
2024/03/08 06:19:23;;;;;;;98.40;49.50;;;;;;;-3.81;83.37;100599.34;218192;1261;141021;-70
2024/03/08 06:24:27;;;;;;;100.90;48.30;;;;;;;-3.64;83.52;100599.86;217116;1263;140257;-70
2024/03/08 06:29:31;;;;;;;89.60;48.10;;;;;;;-3.46;83.82;100599.98;217060;1263;142878;-70
2024/03/08 06:34:36;;;;;;;91.10;49.60;;;;;;;-3.28;83.84;100604.80;216773;1263;140669;-71
2024/03/08 06:39:40;;;;;;;95.70;49.20;;;;;;;-3.14;83.84;100601.89;217585;1263;142081;-70
2024/03/08 06:44:49;;;;;;;90.80;47.20;;;;;;;-2.95;84.26;100601.88;216978;1263;141926;-70
2024/03/08 06:49:54;;;;;;;93.80;48.80;;;;;;;-2.75;84.44;100598.50;217232;1259;141576;-69
2024/03/08 06:55:00;;;;;;;98.40;48.40;;;;;;;-2.57;84.59;100601.14;217078;1260;141248;-69
2024/03/08 07:00:09;;;;;;;;;;;;;;;-2.33;84.85;100596.64;217013;1263;140314;-69
2024/03/08 07:05:14;;;;;;;88.40;48.00;;;;;;;-1.97;85.05;100588.65;217731;1260;148372;-69
2024/03/08 07:10:19;;;;;;;93.00;47.70;;;;;;;-1.68;85.14;100587.36;217019;1260;141409;-70
2024/03/08 07:15:23;;;;;;;84.00;46.80;;;;;;;-1.26;85.19;100582.18;216924;1263;140217;-68
2024/03/08 07:20:28;;;;;;;86.00;46.80;;;;;;;-0.29;85.42;100581.34;217011;1260;140699;-70
2024/03/08 07:25:33;;;;;;;69.30;35.90;;;;;;;1.11;85.68;100583.38;217030;1261;140084;-71
2024/03/08 07:35:50;;;;;;;45.30;29.00;;;;;;;4.37;83.87;100575.44;217023;1260;139828;-74
2024/03/08 07:40:56;;;;;;;34.80;21.10;;;;;;;5.72;82.35;100574.89;217653;1260;139447;-74
2024/03/08 07:46:01;;;;;;;31.90;20.10;;;;;;;6.87;80.71;100569.04;216857;1261;140041;-74
2024/03/08 07:51:06;;;;;;;25.70;17.00;;;;;;;7.42;78.82;100566.10;216962;1260;140011;-74
2024/03/08 07:56:13;;;;;;;33.40;16.60;;;;;;;7.66;76.90;100569.71;217779;1259;140286;-75
2024/03/08 08:01:18;;;;;;;27.10;15.90;;;;;;;7.73;76.01;100565.92;219582;1261;139814;-75
2024/03/08 08:06:23;;;;;;;25.00;17.60;;;;;;;7.67;74.66;100559.33;218130;1259;141847;-74
2024/03/08 08:11:28;;;;;;;27.10;18.10;;;;;;;7.52;73.72;100555.11;216911;1260;140681;-74
2024/03/08 08:16:33;;;;;;;30.30;17.60;;;;;;;7.42;73.15;100560.27;217482;1260;139175;-75
2024/03/08 08:21:37;;;;;;;26.90;14.60;;;;;;;7.35;72.71;100558.34;218113;1260;139408;-75
2024/03/08 08:26:41;;;;;;;28.90;16.00;;;;;;;7.18;71.57;100562.38;216944;1262;139925;-75
2024/03/08 08:31:46;;;;;;;25.30;14.80;;;;;;;7.07;70.85;100559.52;216845;1260;139647;-75
2024/03/08 08:36:50;;;;;;;30.00;18.30;;;;;;;6.97;70.98;100558.14;217185;1260;139758;-75
2024/03/08 08:41:55;;;;;;;25.50;16.00;;;;;;;6.86;70.28;100558.08;216950;1260;140410;-75
2024/03/08 08:46:59;;;;;;;26.30;13.50;;;;;;;6.77;69.61;100555.66;216790;1264;225006;-75
2024/03/08 08:52:16;;;;;;;24.50;16.40;;;;;;;6.75;69.73;100551.86;216756;1260;139642;-75
2024/03/08 08:57:20;;;;;;;23.90;13.80;;;;;;;6.77;68.96;100549.35;216798;1260;139528;-75
2024/03/08 09:02:25;;;;;;;27.80;17.10;;;;;;;6.74;68.35;100546.17;217089;1260;138896;-76
2024/03/08 09:07:29;;;;;;;26.30;16.10;;;;;;;6.72;67.84;100539.23;216789;1260;139323;-75
2024/03/08 09:12:34;;;;;;;30.30;15.90;;;;;;;6.75;68.01;100535.10;216893;1260;140283;-75
2024/03/08 09:17:40;;;;;;;30.10;17.80;;;;;;;6.89;68.34;100533.73;217093;1263;221089;-76
2024/03/08 09:22:45;;;;;;;31.80;19.50;;;;;;;7.08;68.69;100526.16;217008;1259;140700;-76
2024/03/08 09:27:50;;;;;;;28.20;18.10;;;;;;;7.33;69.03;100525.69;217423;1260;141022;-76
2024/03/08 09:32:54;;;;;;;28.70;19.30;;;;;;;7.57;68.75;100518.37;216782;1259;140910;-76
2024/03/08 09:38:03;;;;;;;34.30;17.90;;;;;;;7.72;68.11;100516.96;217070;1261;139956;-75
2024/03/08 09:43:08;;;;;;;25.40;15.80;;;;;;;7.85;67.67;100515.31;217019;1260;140543;-76
2024/03/08 09:48:12;;;;;;;26.70;15.60;;;;;;;8.02;67.41;100508.30;216992;1263;139466;-75
2024/03/08 09:53:17;;;;;;;20.90;12.90;;;;;;;8.17;66.91;100505.91;216874;1263;138924;-76
2024/03/08 10:03:35;;;;;;;26.20;15.00;;;;;;;8.42;65.99;100500.27;216945;1260;140011;-76
2024/03/08 10:08:39;;;;;;;19.50;12.20;;;;;;;8.38;65.46;100494.83;217036;1263;139367;-76
2024/03/08 10:13:47;;;;;;;;;;;;;;;8.33;64.60;100489.80;218019;1260;139237;-76
2024/03/08 10:18:53;;;;;;;22.30;13.00;;;;;;;8.28;64.25;100483.52;217845;1260;125423;-76
2024/03/08 10:23:59;;;;;;;28.20;14.10;;;;;;;8.45;64.31;100483.16;217032;1260;139521;-76
2024/03/08 10:29:04;;;;;;;19.20;13.20;;;;;;;8.66;64.53;100481.45;216888;1259;139434;-76
2024/03/08 10:34:09;;;;;;;32.50;16.10;;;;;;;8.87;63.63;100473.05;217021;1259;138858;-76
2024/03/08 10:39:24;;;;;;;24.20;12.60;;;;;;;8.86;63.01;100471.84;217805;1258;139826;-77
2024/03/08 10:44:50;;;;;;;28.40;14.60;;;;;;;9.00;62.95;100467.04;217262;1259;139600;-76
2024/03/08 10:50:03;;;;;;;21.80;15.10;;;;;;;9.00;61.32;100463.89;217032;1259;139878;-76
2024/03/08 10:55:12;;;;;;;15.10;9.30;;;;;;;9.02;61.09;100465.40;217602;1259;141057;-77
2024/03/08 11:00:18;;;;;;;10.80;8.00;;;;;;;9.10;61.05;100461.27;216769;1259;140964;-77
2024/03/08 11:05:39;;;;;;;19.20;8.60;;;;;;;9.18;60.17;100453.39;217037;1259;140515;-76
2024/03/08 11:10:53;;;;;;;17.90;11.60;;;;;;;9.30;59.70;100451.23;216796;1258;139418;-77
2024/03/08 11:16:00;;;;;;;10.90;8.50;;;;;;;9.30;58.52;100448.39;217899;1258;140839;-76
2024/03/08 11:21:12;;;;;;;7.00;5.90;;;;;;;9.29;58.24;100445.37;217413;1258;139818;-76
2024/03/08 11:26:23;;;;;;;12.70;8.30;;;;;;;9.28;57.71;100444.55;217880;1263;140959;-76
2024/03/08 11:31:28;;;;;;;12.60;8.20;;;;;;;9.34;57.39;100436.97;216542;1259;139809;-76
2024/03/08 11:36:37;;;;;;;12.10;7.80;;;;;;;9.35;56.51;100436.27;216863;1259;139050;-76
2024/03/08 11:41:45;;;;;;;10.80;6.50;;;;;;;9.30;55.83;100427.89;216889;1259;139163;-73
2024/03/08 11:46:50;;;;;;;13.30;6.70;;;;;;;9.25;55.70;100423.93;216666;1263;138879;-76
2024/03/08 11:51:56;;;;;;;11.00;6.70;;;;;;;9.38;55.60;100412.52;216856;1259;140557;-75
2024/03/08 11:57:01;;;;;;;10.90;6.70;;;;;;;9.45;54.81;100401.70;216867;1259;139900;-76
2024/03/08 12:02:06;;;;;;;16.50;7.90;;;;;;;9.50;54.72;100397.97;216993;1263;139950;-76
2024/03/08 12:07:11;;;;;;;12.40;7.10;;;;;;;9.59;54.57;100396.55;219106;1260;140406;-76
2024/03/08 12:12:17;;;;;;;8.70;7.20;;;;;;;9.66;54.10;100386.36;216662;1263;139724;-76
2024/03/08 12:17:24;;;;;;;9.10;6.70;;;;;;;9.65;53.91;100379.77;216660;1259;139975;-75
2024/03/08 12:22:31;;;;;;;13.90;8.20;;;;;;;9.52;53.39;100376.92;217610;1259;139338;-76
2024/03/08 12:27:35;;;;;;;17.20;11.40;;;;;;;9.41;53.47;100372.44;216606;1260;141066;-76
2024/03/08 12:32:46;;;;;;;20.50;9.40;;;;;;;9.37;53.67;100363.40;216781;1259;139871;-75
2024/03/08 12:37:53;;;;;;;15.40;9.40;;;;;;;9.32;53.79;100354.70;218625;1259;161986;-75
2024/03/08 12:43:02;;;;;;;15.90;10.70;;;;;;;9.24;53.38;100352.77;217734;1259;139332;-75
2024/03/08 12:48:16;;;;;;;10.40;8.00;;;;;;;9.23;53.53;100343.89;216670;1262;140252;-74
2024/03/08 12:53:21;;;;;;;10.20;7.70;;;;;;;9.20;53.36;100341.52;217552;1259;139350;-74
2024/03/08 12:58:25;;;;;;;14.20;8.90;;;;;;;9.20;53.09;100335.22;218013;1259;140359;-75
2024/03/08 13:03:31;;;;;;;15.40;8.00;;;;;;;9.23;53.28;100333.05;216762;1259;139024;-76
2024/03/08 13:08:41;;;;;;;11.10;7.60;;;;;;;9.25;52.89;100330.33;216644;1259;139018;-75
2024/03/08 13:13:46;;;;;;;12.10;8.00;;;;;;;9.28;52.73;100326.73;217485;1263;139350;-75
2024/03/08 13:18:50;;;;;;;15.10;9.50;;;;;;;9.33;52.47;100324.41;216811;1262;140197;-75
2024/03/08 13:24:00;;;;;;;16.70;9.80;;;;;;;9.35;52.12;100315.80;216637;1263;140468;-75
2024/03/08 13:29:06;;;;;;;11.20;9.00;;;;;;;9.37;51.65;100312.70;216571;1259;140352;-75
2024/03/08 13:34:11;;;;;;;14.80;9.60;;;;;;;9.34;51.40;100304.92;216531;1260;140299;-75
2024/03/08 13:39:15;;;;;;;15.80;8.80;;;;;;;9.33;51.52;100300.84;216626;1260;140134;-75
2024/03/08 13:44:20;;;;;;;14.30;7.30;;;;;;;9.29;51.23;100296.75;216635;1263;139119;-75
2024/03/08 13:49:25;;;;;;;10.70;7.80;;;;;;;9.21;50.98;100289.96;216724;1263;140598;-74
2024/03/08 13:54:31;;;;;;;10.20;7.10;;;;;;;9.18;51.14;100289.00;216902;1260;139182;-74
2024/03/08 13:59:35;;;;;;;12.70;7.20;;;;;;;9.20;50.48;100285.34;216797;1263;140512;-75
2024/03/08 14:04:41;;;;;;;11.40;8.30;;;;;;;9.11;50.15;100283.48;216671;1263;140286;-75
2024/03/08 14:09:46;;;;;;;15.40;9.00;;;;;;;9.11;50.67;100278.16;216731;1263;139361;-74
2024/03/08 14:14:51;;;;;;;14.70;9.10;;;;;;;9.13;50.24;100268.49;216843;1259;139243;-75
2024/03/08 14:19:56;;;;;;;18.30;9.70;;;;;;;9.09;50.05;100270.48;216871;1259;140130;-75
2024/03/08 14:25:02;;;;;;;12.30;8.50;;;;;;;8.98;49.66;100268.14;217451;1262;140804;-75
2024/03/08 14:30:10;;;;;;;12.70;9.60;;;;;;;8.92;49.54;100263.21;217023;1259;139729;-75
2024/03/08 14:35:14;;;;;;;12.60;7.30;;;;;;;8.89;49.83;100255.90;218092;1259;140055;-75
2024/03/08 14:40:25;;;;;;;10.50;6.10;;;;;;;8.87;49.43;100254.32;216874;1259;139153;-75
2024/03/08 14:45:30;;;;;;;13.20;9.10;;;;;;;8.83;49.44;100250.38;216620;1259;140427;-73
2024/03/08 14:50:36;;;;;;;15.60;8.80;;;;;;;8.81;49.37;100246.02;216660;1262;140108;-74
2024/03/08 14:55:40;;;;;;;15.70;7.70;;;;;;;8.73;49.37;100235.85;216598;1260;139153;-73
2024/03/08 15:00:44;;;;;;;14.60;8.70;;;;;;;8.67;49.61;100233.63;216732;1259;140044;-74
2024/03/08 15:05:50;;;;;;;12.40;7.50;;;;;;;8.57;49.52;100224.98;216491;1263;139432;-74
2024/03/08 15:10:53;;;;;;;13.60;9.00;;;;;;;8.44;49.54;100222.70;217025;1262;210165;-73
2024/03/08 15:15:58;;;;;;;14.40;8.80;;;;;;;8.35;49.82;100221.94;218389;1259;141804;-73
2024/03/08 15:21:06;;;;;;;15.60;8.00;;;;;;;8.27;49.74;100222.14;216713;1260;139796;-73
2024/03/08 15:26:10;;;;;;;12.80;9.20;;;;;;;8.15;49.96;100224.37;217699;1259;138934;-73
2024/03/08 15:31:14;;;;;;;14.10;8.10;;;;;;;7.96;50.04;100221.98;219468;1258;139501;-72
2024/03/08 15:36:21;;;;;;;13.90;7.40;;;;;;;7.83;50.57;100220.56;219203;1259;139490;-72
2024/03/08 15:41:26;;;;;;;19.00;9.60;;;;;;;7.68;50.69;100217.02;217417;1259;138989;-73
2024/03/08 15:46:30;;;;;;;19.10;12.40;;;;;;;7.53;50.76;100215.38;218503;1259;139876;-75
2024/03/08 15:51:37;;;;;;;16.70;10.20;;;;;;;7.38;51.01;100213.68;216973;1262;139022;-78
2024/03/08 15:56:46;;;;;;;16.20;9.30;;;;;;;7.22;51.49;100213.98;217170;1260;139928;-74
2024/03/08 16:01:51;;;;;;;20.30;12.00;;;;;;;7.03;51.89;100213.82;217226;1261;139277;-74
2024/03/08 16:07:00;;;;;;;18.60;11.40;;;;;;;6.86;52.13;100217.19;217510;1259;141806;-75
2024/03/08 16:12:09;;;;;;;20.40;11.10;;;;;;;6.66;52.64;100220.75;218674;1259;139321;-73
2024/03/08 16:17:18;;;;;;;19.70;11.60;;;;;;;6.50;53.06;100216.84;217297;1264;140685;-76
2024/03/08 16:22:25;;;;;;;20.80;13.10;;;;;;;6.34;53.54;100221.40;217108;1262;140013;-76
2024/03/08 16:27:29;;;;;;;21.40;11.30;;;;;;;6.16;54.45;100221.08;217329;1263;139294;-77
2024/03/08 16:32:33;;;;;;;19.00;12.70;;;;;;;5.94;55.05;100223.30;217005;1263;161598;-77
2024/03/08 16:37:52;;;;;;;31.60;18.60;;;;;;;5.69;55.20;100226.55;217742;1259;139328;-74
2024/03/08 16:42:56;;;;;;;25.30;14.50;;;;;;;5.42;55.93;100225.73;217462;1259;139332;-73
2024/03/08 16:48:03;;;;;;;18.90;10.60;;;;;;;5.16;56.32;100223.60;217124;1259;140408;-74
2024/03/08 16:53:10;;;;;;;18.30;11.80;;;;;;;4.90;57.01;100225.10;217498;1262;139695;-74
2024/03/08 16:58:14;;;;;;;;;;;;;;;4.65;57.60;100223.88;217902;1259;139927;-76
2024/03/08 17:03:19;;;;;;;18.70;11.40;;;;;;;4.42;58.24;100221.39;217178;1259;126373;-75
2024/03/08 17:08:23;;;;;;;18.60;10.00;;;;;;;4.19;58.30;100221.52;216673;1263;140928;-75
2024/03/08 17:13:27;;;;;;;22.80;11.80;;;;;;;3.99;58.94;100223.56;216560;1259;140264;-75
2024/03/08 17:18:31;;;;;;;24.50;11.80;;;;;;;3.82;59.48;100228.91;216742;1263;139720;-75
2024/03/08 17:23:36;;;;;;;21.30;12.50;;;;;;;3.61;59.75;100228.49;216825;1261;140308;-74
2024/03/08 17:28:43;;;;;;;18.40;12.20;;;;;;;3.38;59.96;100228.94;216503;1262;142288;-76
2024/03/08 17:33:47;;;;;;;19.50;12.70;;;;;;;3.07;60.12;100227.21;216241;1261;651357;-75
2024/03/08 17:38:52;;;;;;;20.00;8.80;;;;;;;2.87;61.03;100226.27;216737;1259;140081;-72
2024/03/08 17:43:57;;;;;;;17.80;10.30;;;;;;;2.72;61.79;100224.14;216855;1261;139348;-70
2024/03/08 17:49:02;;;;;;;21.00;12.20;;;;;;;2.41;61.85;100220.82;216992;1261;140356;-73
2024/03/08 17:54:10;;;;;;;21.50;12.90;;;;;;;2.09;62.22;100223.05;216411;1264;140242;-73
2024/03/08 17:59:15;;;;;;;40.90;15.30;;;;;;;1.87;62.92;100225.00;217015;1261;139602;-72
2024/03/08 18:04:22;;;;;;;40.20;19.20;;;;;;;1.71;63.48;100219.38;219054;1262;139834;-75
2024/03/08 18:09:26;;;;;;;48.70;24.00;;;;;;;1.52;63.60;100219.67;216914;1259;139973;-73
2024/03/08 18:14:30;;;;;;;65.30;29.90;;;;;;;1.30;63.99;100219.41;216677;1262;140469;-74
2024/03/08 18:19:36;;;;;;;50.30;26.50;;;;;;;1.13;64.34;100212.86;216853;1263;141236;-72
2024/03/08 18:24:41;;;;;;;56.10;25.50;;;;;;;1.09;64.56;100215.41;216851;1260;141647;-72
2024/03/08 18:29:46;;;;;;;85.60;37.10;;;;;;;1.03;64.84;100215.08;216601;1259;139636;-73
2024/03/08 18:34:50;;;;;;;79.70;35.80;;;;;;;0.89;65.15;100214.71;217408;1259;141902;-72
2024/03/08 18:39:56;;;;;;;72.90;32.70;;;;;;;0.85;65.84;100214.77;216551;1260;140633;-73
2024/03/08 18:45:00;;;;;;;62.10;28.30;;;;;;;0.86;66.04;100217.11;216619;1264;141104;-72
2024/03/08 18:50:05;;;;;;;47.50;24.50;;;;;;;0.75;65.91;100212.71;216653;1259;141071;-70
2024/03/08 18:55:15;;;;;;;49.20;24.10;;;;;;;0.63;66.85;100210.94;216718;1261;141139;-71
2024/03/08 19:00:21;;;;;;;48.90;22.60;;;;;;;0.47;66.55;100205.77;216599;1259;140207;-70
2024/03/08 19:05:28;;;;;;;47.90;23.70;;;;;;;0.35;67.38;100202.59;218429;1259;141202;-71
2024/03/08 19:10:33;;;;;;;45.90;25.90;;;;;;;0.27;67.62;100198.02;218943;1261;141045;-70
2024/03/08 19:15:38;;;;;;;60.90;28.40;;;;;;;0.17;67.43;100199.27;216683;1260;140282;-70
2024/03/08 19:20:42;;;;;;;90.10;35.20;;;;;;;0.06;68.05;100199.01;216611;1263;140249;-70
2024/03/08 19:25:49;;;;;;;44.90;20.90;;;;;;;-0.02;68.45;100199.80;216580;1260;140347;-71
2024/03/08 19:30:55;;;;;;;60.00;26.20;;;;;;;-0.08;68.93;100197.80;216733;1263;143383;-69
2024/03/08 19:36:00;;;;;;;54.00;27.20;;;;;;;-0.11;69.51;100203.91;216639;1263;141594;-71
2024/03/08 19:41:04;;;;;;;42.80;20.90;;;;;;;-0.15;69.37;100202.41;219105;1259;141439;-72
2024/03/08 19:46:11;;;;;;;38.20;20.10;;;;;;;-0.27;69.66;100199.56;216680;1259;140768;-73
2024/03/08 19:51:17;;;;;;;64.00;28.30;;;;;;;-0.34;69.77;100198.16;216575;1263;141037;-73
2024/03/08 19:56:22;;;;;;;73.10;30.50;;;;;;;-0.43;69.98;100195.51;216680;1263;143433;-76
2024/03/08 20:01:26;;;;;;;64.80;33.90;;;;;;;-0.51;69.96;100195.34;216726;1258;142430;-71
2024/03/08 20:06:31;;;;;;;125.00;49.20;;;;;;;-0.58;70.28;100191.70;216848;1263;141499;-70
2024/03/08 20:11:36;;;;;;;141.80;49.50;;;;;;;-0.62;70.65;100187.34;216676;1260;140341;-70
2024/03/08 20:16:39;;;;;;;112.40;46.20;;;;;;;-0.66;70.48;100189.64;216712;1259;142401;-71
2024/03/08 20:21:43;;;;;;;105.60;44.10;;;;;;;-0.68;71.23;100191.42;217210;1262;140405;-69
2024/03/08 20:26:48;;;;;;;127.20;45.80;;;;;;;-0.71;71.36;100189.27;216752;1263;140965;-69
2024/03/08 20:31:53;;;;;;;100.80;42.70;;;;;;;-0.71;71.63;100187.06;217114;1263;140457;-71
2024/03/08 20:37:00;;;;;;;88.70;42.60;;;;;;;-0.71;72.08;100184.69;216839;1263;141399;-69
2024/03/08 20:42:05;;;;;;;;;;;;;;;-0.75;72.08;100178.89;216764;1264;140307;-70
2024/03/08 20:47:11;;;;;;;62.90;32.70;;;;;;;-0.87;72.02;100176.59;216987;1263;126345;-69
2024/03/08 20:52:15;;;;;;;77.70;34.10;;;;;;;-1.01;71.86;100176.88;216715;1260;140213;-70
2024/03/08 20:57:20;;;;;;;65.00;35.30;;;;;;;-1.14;72.01;100172.19;216731;1263;140524;-73
2024/03/08 21:02:25;;;;;;;62.40;32.90;;;;;;;-1.19;72.32;100174.16;216962;1263;141067;-70
2024/03/08 21:07:31;;;;;;;67.50;33.20;;;;;;;-1.25;72.71;100171.08;216764;1263;161248;-70
2024/03/08 21:12:38;;;;;;;80.10;40.50;;;;;;;-1.34;72.49;100163.01;216942;1264;140438;-70
2024/03/08 21:17:46;;;;;;;73.80;37.60;;;;;;;-1.42;72.71;100166.71;217963;1262;142163;-70
2024/03/08 21:22:51;;;;;;;79.20;37.10;;;;;;;-1.44;73.21;100161.39;216886;1264;152026;-71
2024/03/08 21:28:00;;;;;;;84.80;42.90;;;;;;;-1.50;73.50;100160.27;216607;1260;141030;-70
2024/03/08 21:33:10;;;;;;;66.30;39.00;;;;;;;-1.58;73.55;100153.36;219971;1259;141893;-70
2024/03/08 21:38:16;;;;;;;82.80;40.50;;;;;;;-1.67;73.70;100150.36;219971;1259;140408;-70
2024/03/08 21:43:21;;;;;;;77.40;41.80;;;;;;;-1.65;74.00;100144.98;219145;1263;141098;-70
2024/03/08 21:48:25;;;;;;;92.20;46.70;;;;;;;-1.60;74.19;100143.48;216942;1260;140410;-71
2024/03/08 21:53:30;;;;;;;95.00;48.20;;;;;;;-1.59;74.26;100144.39;216607;1263;140799;-70
2024/03/08 21:58:40;;;;;;;103.10;48.00;;;;;;;-1.65;74.31;100135.73;216751;1264;141000;-69
2024/03/08 22:03:45;;;;;;;172.70;64.00;;;;;;;-1.76;74.07;100136.33;216656;1263;141368;-70
2024/03/08 22:08:50;;;;;;;132.50;54.80;;;;;;;-1.87;74.27;100136.70;216699;1262;140470;-71
2024/03/08 22:13:55;;;;;;;114.20;51.10;;;;;;;-1.94;74.63;100135.66;216619;1261;141116;-70
2024/03/08 22:19:00;;;;;;;118.80;50.70;;;;;;;-2.01;74.54;100134.59;216975;1263;140875;-69
2024/03/08 22:24:04;;;;;;;99.30;50.10;;;;;;;-2.08;74.99;100130.87;216911;1259;140491;-70
2024/03/08 22:29:10;;;;;;;109.20;55.20;;;;;;;-2.11;75.19;100127.11;217082;1259;141438;-70
2024/03/08 22:34:15;;;;;;;97.30;49.40;;;;;;;-2.07;75.72;100126.39;216559;1265;141734;-70
2024/03/08 22:39:20;;;;;;;90.00;42.60;;;;;;;-2.01;75.78;100125.77;216639;1261;141871;-70
2024/03/08 22:44:27;;;;;;;100.40;50.30;;;;;;;-1.98;75.95;100128.20;216805;1261;142538;-70
2024/03/08 22:49:33;;;;;;;79.80;41.90;;;;;;;-1.94;76.17;100122.40;216912;1263;141747;-71
2024/03/08 22:54:37;;;;;;;103.40;48.60;;;;;;;-1.91;76.29;100115.36;218085;1263;141050;-69
2024/03/08 22:59:41;;;;;;;108.20;51.20;;;;;;;-1.90;76.18;100115.08;216665;1263;140780;-68